Time;durP1;ratioP1;P1;durP2;ratioP2;P2;SDS_P1;SDS_P2;PMS_P1;PMS_P2;Temp;Humidity;BMP_temperature;BMP_pressure;BME280_temperature;BME280_humidity;BME280_pressure;Samples;Min_cycle;Max_cycle;Signal;HPM_P1;HPM_P2
2023/11/21 00:01:04;;;;;;;2.75;1.23;;;;;;;;;;5114360;28;20106;-59
2023/11/21 00:03:31;;;;;;;3.78;1.60;;;;;;;;;;5114851;28;20024;-57
2023/11/21 00:05:57;;;;;;;3.58;1.13;;;;;;;;;;5113947;28;20032;-57
2023/11/21 00:08:23;;;;;;;4.78;1.70;;;;;;;;;;5114558;28;20050;-57
2023/11/21 00:10:49;;;;;;;4.82;1.90;;;;;;;;;;5114536;28;20016;-57
2023/11/21 00:13:15;;;;;;;4.35;1.30;;;;;;;;;;5113944;28;20509;-57
2023/11/21 00:15:40;;;;;;;2.45;1.67;;;;;;;;;;5113924;28;20027;-56
2023/11/21 00:18:07;;;;;;;3.22;0.93;;;;;;;;;;5114536;28;20141;-57
2023/11/21 00:20:33;;;;;;;2.67;1.45;;;;;;;;;;5114250;28;20020;-57
2023/11/21 00:22:59;;;;;;;4.00;1.92;;;;;;;;;;5113582;28;20035;-57
2023/11/21 00:25:25;;;;;;;10.15;2.10;;;;;;;;;;5113776;28;20036;-57
2023/11/21 00:27:51;;;;;;;5.68;1.63;;;;;;;;;;5114658;28;20042;-55
2023/11/21 00:30:17;;;;;;;6.13;1.52;;;;;;;;;;5114623;28;20024;-57
2023/11/21 00:32:43;;;;;;;5.53;2.13;;;;;;;;;;5114031;28;20388;-56
2023/11/21 00:35:09;;;;;;;3.40;1.33;;;;;;;;;;5114068;28;20081;-56
2023/11/21 00:37:35;;;;;;;3.45;1.35;;;;;;;;;;5114019;28;20111;-56
2023/11/21 00:40:05;;;;;;;7.47;1.75;;;;;;;;;;5113696;28;20055;-57
2023/11/21 00:42:33;;;;;;;4.88;1.63;;;;;;;;;;5113967;28;20024;-55
2023/11/21 00:44:59;;;;;;;4.65;1.48;;;;;;;;;;5115952;28;20028;-56
2023/11/21 00:47:25;;;;;;;3.58;1.67;;;;;;;;;;5118146;28;20118;-56
2023/11/21 00:49:51;;;;;;;3.40;1.65;;;;;;;;;;5118125;28;20059;-56
2023/11/21 00:52:17;;;;;;;7.38;2.17;;;;;;;;;;5118033;28;20032;-56
2023/11/21 00:54:43;;;;;;;3.17;1.55;;;;;;;;;;5117482;28;20047;-56
2023/11/21 00:57:11;;;;;;;4.35;1.10;;;;;;;;;;5117950;28;20449;-57
2023/11/21 00:59:37;;;;;;;2.17;1.17;;;;;;;;;;5118154;28;20028;-57
2023/11/21 01:02:04;;;;;;;5.28;1.42;;;;;;;;;;5117216;28;20118;-56
2023/11/21 01:04:32;;;;;;;6.03;1.33;;;;;;;;;;5117798;28;20106;-57
2023/11/21 01:06:58;;;;;;;2.40;1.50;;;;;;;;;;5117668;28;20027;-56
2023/11/21 01:09:24;;;;;;;3.47;1.00;;;;;;;;;;5117143;28;20032;-56
2023/11/21 01:11:51;;;;;;;5.65;1.30;;;;;;;;;;5117104;28;20049;-55
2023/11/21 01:14:17;;;;;;;2.28;1.23;;;;;;;;;;5117615;28;20063;-55
2023/11/21 01:16:43;;;;;;;3.28;1.60;;;;;;;;;;5117001;28;20047;-56
2023/11/21 01:19:09;;;;;;;2.92;1.63;;;;;;;;;;5117059;28;20020;-56
2023/11/21 01:21:35;;;;;;;2.17;1.38;;;;;;;;;;5117375;28;20023;-54
2023/11/21 01:24:02;;;;;;;2.58;0.90;;;;;;;;;;5117400;28;20514;-56
2023/11/21 01:26:28;;;;;;;2.72;1.08;;;;;;;;;;5116748;28;20035;-57
2023/11/21 01:28:54;;;;;;;2.78;1.08;;;;;;;;;;5117332;28;20498;-56
2023/11/21 01:31:20;;;;;;;2.70;0.90;;;;;;;;;;5116726;28;20032;-56
2023/11/21 01:33:46;;;;;;;2.90;1.17;;;;;;;;;;5116636;28;20034;-56
2023/11/21 01:36:12;;;;;;;3.63;1.30;;;;;;;;;;5116563;28;20027;-56
2023/11/21 01:38:38;;;;;;;3.15;1.23;;;;;;;;;;5117460;28;20023;-56
2023/11/21 01:41:06;;;;;;;5.13;1.13;;;;;;;;;;5116547;28;20160;-56
2023/11/21 01:43:31;;;;;;;3.60;0.80;;;;;;;;;;5116762;28;20043;-57
2023/11/21 01:45:58;;;;;;;1.30;0.50;;;;;;;;;;5116720;28;20019;-56
2023/11/21 01:48:24;;;;;;;3.95;1.10;;;;;;;;;;5116735;28;20032;-56
2023/11/21 01:50:51;;;;;;;2.65;0.90;;;;;;;;;;5116881;28;20031;-57
2023/11/21 01:53:17;;;;;;;3.13;0.70;;;;;;;;;;5116323;28;20024;-57
2023/11/21 01:55:45;;;;;;;1.77;0.93;;;;;;;;;;5115642;28;20430;-57
2023/11/21 01:58:12;;;;;;;9.00;1.27;;;;;;;;;;5116793;28;20028;-56
2023/11/21 02:00:38;;;;;;;1.30;0.60;;;;;;;;;;5116164;28;20019;-54
2023/11/21 02:03:04;;;;;;;5.03;1.15;;;;;;;;;;5116674;28;20108;-56
2023/11/21 02:05:30;;;;;;;1.23;0.75;;;;;;;;;;5116488;28;20032;-57
2023/11/21 02:07:56;;;;;;;1.42;0.65;;;;;;;;;;5116540;28;20032;-56
2023/11/21 02:10:22;;;;;;;3.22;0.98;;;;;;;;;;5116444;28;20054;-56
2023/11/21 02:12:51;;;;;;;4.53;1.00;;;;;;;;;;5115901;28;20095;-55
2023/11/21 02:15:21;;;;;;;2.15;1.02;;;;;;;;;;5115844;28;20026;-56
2023/11/21 02:17:50;;;;;;;2.70;0.75;;;;;;;;;;5116163;28;20027;-57
2023/11/21 02:20:17;;;;;;;4.22;1.00;;;;;;;;;;5115770;28;20030;-54
2023/11/21 02:22:44;;;;;;;1.45;0.63;;;;;;;;;;5115647;28;20027;-56
2023/11/21 02:25:09;;;;;;;2.50;1.23;;;;;;;;;;5116123;28;20036;-56
2023/11/21 02:27:36;;;;;;;2.40;0.82;;;;;;;;;;5115605;28;20145;-57
2023/11/21 02:30:04;;;;;;;3.22;1.20;;;;;;;;;;5116134;28;20020;-57
2023/11/21 02:32:31;;;;;;;1.65;1.00;;;;;;;;;;5116343;28;20059;-56
2023/11/21 02:35:00;;;;;;;2.17;0.85;;;;;;;;;;5116035;28;20034;-57
2023/11/21 02:37:26;;;;;;;2.10;1.02;;;;;;;;;;5115817;28;20024;-55
2023/11/21 02:39:52;;;;;;;3.30;0.90;;;;;;;;;;5115148;28;20073;-57
2023/11/21 02:42:18;;;;;;;1.20;0.60;;;;;;;;;;5115390;28;20381;-57
2023/11/21 02:44:45;;;;;;;0.68;0.40;;;;;;;;;;5115197;28;20016;-56
2023/11/21 02:47:11;;;;;;;1.40;0.80;;;;;;;;;;5115752;28;20031;-57
2023/11/21 02:49:36;;;;;;;1.83;0.70;;;;;;;;;;5115207;28;20028;-56
2023/11/21 02:52:03;;;;;;;1.75;0.90;;;;;;;;;;5114831;28;20045;-56
2023/11/21 02:54:29;;;;;;;4.70;0.52;;;;;;;;;;5115761;28;20358;-56
2023/11/21 02:56:55;;;;;;;1.17;0.50;;;;;;;;;;5115027;28;20043;-57
2023/11/21 02:59:21;;;;;;;2.40;0.85;;;;;;;;;;5115096;28;20028;-56
2023/11/21 03:01:47;;;;;;;0.65;0.30;;;;;;;;;;5114718;28;20033;-57
2023/11/21 03:04:17;;;;;;;3.00;0.80;;;;;;;;;;5114696;28;20024;-57
2023/11/21 03:06:44;;;;;;;2.90;0.60;;;;;;;;;;5114069;28;20482;-57
2023/11/21 03:09:11;;;;;;;1.25;0.52;;;;;;;;;;5114857;28;20062;-57
2023/11/21 03:11:37;;;;;;;4.18;0.77;;;;;;;;;;5114512;28;20484;-57
2023/11/21 03:14:03;;;;;;;1.98;1.02;;;;;;;;;;5114765;28;20049;-57
2023/11/21 03:16:29;;;;;;;2.40;0.73;;;;;;;;;;5114755;28;20023;-57
2023/11/21 03:18:56;;;;;;;0.90;0.50;;;;;;;;;;5115188;28;20024;-56
2023/11/21 03:21:23;;;;;;;2.10;0.80;;;;;;;;;;5114584;28;20027;-57
2023/11/21 03:23:48;;;;;;;1.30;0.60;;;;;;;;;;5114524;28;20064;-57
2023/11/21 03:26:14;;;;;;;0.65;0.40;;;;;;;;;;5114517;28;20106;-57
2023/11/21 03:28:40;;;;;;;3.35;0.50;;;;;;;;;;5114904;28;20106;-55
2023/11/21 03:31:06;;;;;;;2.08;0.73;;;;;;;;;;5114488;28;20059;-56
2023/11/21 03:33:32;;;;;;;2.47;0.73;;;;;;;;;;5114462;28;20020;-56
2023/11/21 03:35:58;;;;;;;2.33;0.80;;;;;;;;;;5114686;28;20449;-56
2023/11/21 03:38:24;;;;;;;0.88;0.43;;;;;;;;;;5115179;28;20026;-57
2023/11/21 03:40:50;;;;;;;1.15;0.60;;;;;;;;;;5114335;28;20430;-57
2023/11/21 03:43:16;;;;;;;0.50;0.25;;;;;;;;;;5114104;28;20415;-57
2023/11/21 03:45:42;;;;;;;1.08;0.60;;;;;;;;;;5114078;28;20032;-54
2023/11/21 03:48:08;;;;;;;2.70;0.55;;;;;;;;;;5114754;28;20063;-53
2023/11/21 03:50:34;;;;;;;1.33;0.50;;;;;;;;;;5114792;28;20024;-55
2023/11/21 03:53:00;;;;;;;0.90;0.47;;;;;;;;;;5114183;28;20081;-56
2023/11/21 03:55:26;;;;;;;1.33;0.30;;;;;;;;;;5114540;28;20127;-56
2023/11/21 03:57:52;;;;;;;1.65;0.65;;;;;;;;;;5114169;28;20062;-55
2023/11/21 04:00:20;;;;;;;1.48;0.47;;;;;;;;;;5114391;28;20019;-56
2023/11/21 04:02:46;;;;;;;0.85;0.40;;;;;;;;;;5114080;28;20034;-55
2023/11/21 04:05:12;;;;;;;2.00;0.40;;;;;;;;;;5114178;28;20361;-54
2023/11/21 04:07:38;;;;;;;1.45;0.77;;;;;;;;;;5114073;28;20028;-56
2023/11/21 04:10:08;;;;;;;2.50;0.60;;;;;;;;;;5114311;28;20038;-58
2023/11/21 04:12:35;;;;;;;1.00;0.50;;;;;;;;;;5114602;28;20056;-58
2023/11/21 04:15:00;;;;;;;2.35;0.40;;;;;;;;;;5113957;28;20036;-58
2023/11/21 04:17:26;;;;;;;0.22;0.10;;;;;;;;;;5114537;28;20097;-59
2023/11/21 04:19:52;;;;;;;0.82;0.35;;;;;;;;;;5118026;28;20597;-58
2023/11/21 04:22:18;;;;;;;3.20;0.70;;;;;;;;;;5118642;28;20092;-58
2023/11/21 04:24:44;;;;;;;0.43;0.22;;;;;;;;;;5118892;28;20091;-58
2023/11/21 04:27:10;;;;;;;1.35;0.40;;;;;;;;;;5118822;28;20494;-59
2023/11/21 04:29:36;;;;;;;0.82;0.43;;;;;;;;;;5117886;28;20084;-59
2023/11/21 04:32:02;;;;;;;1.17;0.22;;;;;;;;;;5117660;28;20019;-59
2023/11/21 04:34:30;;;;;;;1.20;0.60;;;;;;;;;;5117844;28;20054;-59
2023/11/21 04:36:56;;;;;;;2.03;0.40;;;;;;;;;;5118410;28;20365;-58
2023/11/21 04:39:23;;;;;;;0.75;0.30;;;;;;;;;;5118330;28;20024;-59
2023/11/21 04:41:49;;;;;;;3.08;0.73;;;;;;;;;;5118511;28;20024;-58
2023/11/21 04:44:16;;;;;;;1.38;0.70;;;;;;;;;;5117438;28;20015;-59
2023/11/21 04:46:42;;;;;;;0.85;0.40;;;;;;;;;;5117868;28;20448;-57
2023/11/21 04:49:08;;;;;;;2.55;0.68;;;;;;;;;;5117960;28;20028;-58
2023/11/21 04:51:34;;;;;;;0.38;0.17;;;;;;;;;;5117545;28;20058;-59
2023/11/21 04:54:00;;;;;;;0.90;0.40;;;;;;;;;;5117757;28;20055;-59
2023/11/21 04:56:26;;;;;;;0.52;0.20;;;;;;;;;;5117039;28;20489;-57
2023/11/21 04:58:52;;;;;;;0.80;0.38;;;;;;;;;;5117948;28;20030;-58
2023/11/21 05:01:18;;;;;;;0.63;0.30;;;;;;;;;;5117580;28;20019;-59
2023/11/21 05:03:44;;;;;;;1.88;0.60;;;;;;;;;;5117716;28;20034;-58
2023/11/21 05:06:10;;;;;;;1.55;0.40;;;;;;;;;;5117743;28;20072;-58
2023/11/21 05:08:37;;;;;;;1.85;0.52;;;;;;;;;;5118213;28;20028;-58
2023/11/21 05:11:03;;;;;;;1.30;0.65;;;;;;;;;;5117244;28;20061;-57
2023/11/21 05:13:29;;;;;;;3.53;0.73;;;;;;;;;;5117759;28;20019;-57
2023/11/21 05:15:58;;;;;;;1.50;0.82;;;;;;;;;;5117431;28;20027;-56
2023/11/21 05:18:26;;;;;;;1.83;0.70;;;;;;;;;;5117737;28;20031;-57
2023/11/21 05:20:53;;;;;;;0.82;0.30;;;;;;;;;;5117098;28;20031;-57
2023/11/21 05:23:19;;;;;;;1.20;0.50;;;;;;;;;;5117835;28;20115;-57
2023/11/21 05:25:46;;;;;;;2.10;0.40;;;;;;;;;;5117173;28;20067;-56
2023/11/21 05:28:12;;;;;;;3.22;0.80;;;;;;;;;;5117581;28;20377;-57
2023/11/21 05:30:41;;;;;;;1.13;0.47;;;;;;;;;;5115959;28;20039;-57
2023/11/21 05:33:07;;;;;;;0.75;0.40;;;;;;;;;;5117034;28;20030;-57
2023/11/21 05:35:33;;;;;;;0.70;0.30;;;;;;;;;;5117059;28;20450;-57
2023/11/21 05:37:59;;;;;;;0.55;0.20;;;;;;;;;;5117215;28;20064;-57
2023/11/21 05:40:29;;;;;;;2.28;0.47;;;;;;;;;;5117073;28;20148;-57
2023/11/21 05:42:55;;;;;;;0.95;0.50;;;;;;;;;;5117348;28;20047;-58
2023/11/21 05:45:21;;;;;;;3.08;0.70;;;;;;;;;;5116351;28;20101;-58
2023/11/21 05:47:47;;;;;;;1.52;0.47;;;;;;;;;;5117088;28;20053;-58
2023/11/21 05:50:14;;;;;;;1.10;0.50;;;;;;;;;;5116147;28;20027;-57
2023/11/21 05:52:41;;;;;;;1.35;0.80;;;;;;;;;;5117139;28;20104;-57
2023/11/21 05:55:07;;;;;;;0.57;0.30;;;;;;;;;;5116685;28;20043;-58
2023/11/21 05:57:37;;;;;;;0.25;0.20;;;;;;;;;;5116270;28;20024;-57
2023/11/21 06:00:18;;;;;;;0.90;0.57;;;;;;;;;;5116160;28;20084;-57
2023/11/21 06:02:45;;;;;;;1.50;0.55;;;;;;;;;;5117006;28;20106;-58
2023/11/21 06:05:11;;;;;;;0.90;0.45;;;;;;;;;;5115996;28;20027;-57
2023/11/21 06:07:38;;;;;;;1.55;0.32;;;;;;;;;;5116577;28;20046;-58
2023/11/21 06:10:12;;;;;;;0.60;0.30;;;;;;;;;;5116040;28;20024;-58
2023/11/21 06:12:40;;;;;;;0.80;0.40;;;;;;;;;;5116866;28;20062;-60
2023/11/21 06:15:08;;;;;;;0.45;0.20;;;;;;;;;;5116334;28;20023;-58
2023/11/21 06:17:36;;;;;;;0.90;0.50;;;;;;;;;;5115953;28;20081;-58
2023/11/21 06:20:08;;;;;;;2.17;0.52;;;;;;;;;;5115781;28;20032;-58
2023/11/21 06:22:34;;;;;;;1.27;0.55;;;;;;;;;;5116321;28;20024;-58
2023/11/21 06:25:00;;;;;;;0.80;0.40;;;;;;;;;;5116259;28;20027;-58
2023/11/21 06:27:26;;;;;;;1.85;0.50;;;;;;;;;;5115754;28;20059;-58
2023/11/21 06:29:52;;;;;;;1.45;0.60;;;;;;;;;;5115651;28;20031;-58
2023/11/21 06:32:20;;;;;;;2.30;0.70;;;;;;;;;;5116083;28;20034;-58
2023/11/21 06:34:46;;;;;;;0.95;0.45;;;;;;;;;;5116489;28;20060;-58
2023/11/21 06:37:12;;;;;;;1.08;0.60;;;;;;;;;;5116291;28;20416;-57
2023/11/21 06:39:38;;;;;;;0.85;0.43;;;;;;;;;;5115558;28;20026;-58
2023/11/21 06:42:04;;;;;;;0.90;0.47;;;;;;;;;;5115606;28;20070;-58
2023/11/21 06:44:30;;;;;;;1.27;0.60;;;;;;;;;;5115097;28;20065;-58
2023/11/21 06:46:56;;;;;;;1.17;0.57;;;;;;;;;;5115522;28;20032;-58
2023/11/21 06:49:23;;;;;;;2.42;0.85;;;;;;;;;;5115070;28;20024;-58
2023/11/21 06:51:49;;;;;;;2.53;0.55;;;;;;;;;;5114962;28;20028;-57
2023/11/21 06:54:14;;;;;;;1.02;0.65;;;;;;;;;;5115248;28;20023;-58
2023/11/21 06:56:41;;;;;;;1.38;0.70;;;;;;;;;;5115766;28;20517;-58
2023/11/21 06:59:07;;;;;;;1.17;0.70;;;;;;;;;;5115590;28;20358;-59
2023/11/21 07:01:38;;;;;;;3.28;0.73;;;;;;;;;;5115522;28;20050;-58
2023/11/21 07:04:05;;;;;;;1.48;0.73;;;;;;;;;;5115813;28;20034;-58
2023/11/21 07:06:30;;;;;;;1.73;0.80;;;;;;;;;;5114777;28;20031;-58
2023/11/21 07:08:58;;;;;;;2.83;0.47;;;;;;;;;;5115792;28;20032;-58
2023/11/21 07:11:25;;;;;;;2.55;1.27;;;;;;;;;;5114674;28;20106;-58
2023/11/21 07:13:51;;;;;;;1.88;1.10;;;;;;;;;;5114756;28;20036;-58
2023/11/21 07:16:18;;;;;;;1.60;0.80;;;;;;;;;;5114653;28;20035;-58
2023/11/21 07:18:44;;;;;;;1.50;0.73;;;;;;;;;;5115348;28;20019;-58
2023/11/21 07:21:11;;;;;;;1.88;1.10;;;;;;;;;;5114614;28;20027;-58
2023/11/21 07:23:38;;;;;;;1.42;0.73;;;;;;;;;;5114548;28;20106;-58
2023/11/21 07:26:08;;;;;;;0.98;0.55;;;;;;;;;;5114461;28;20453;-58
2023/11/21 07:28:35;;;;;;;0.90;0.60;;;;;;;;;;5114879;28;20047;-58
2023/11/21 07:31:01;;;;;;;1.45;0.82;;;;;;;;;;5114523;28;20031;-58
2023/11/21 07:33:27;;;;;;;1.50;0.70;;;;;;;;;;5114526;28;20035;-58
2023/11/21 07:35:53;;;;;;;3.55;0.90;;;;;;;;;;5115121;28;20024;-58
2023/11/21 07:38:19;;;;;;;1.65;0.77;;;;;;;;;;5115043;28;20051;-58
2023/11/21 07:40:45;;;;;;;2.03;1.02;;;;;;;;;;5114453;28;20030;-58
2023/11/21 07:43:11;;;;;;;3.67;1.33;;;;;;;;;;5114094;28;20036;-58
2023/11/21 07:45:37;;;;;;;2.90;1.27;;;;;;;;;;5114181;28;20082;-58
2023/11/21 07:48:04;;;;;;;3.97;1.20;;;;;;;;;;5114633;28;20461;-58
2023/11/21 07:50:31;;;;;;;1.70;1.10;;;;;;;;;;5114178;28;20031;-58
2023/11/21 07:52:58;;;;;;;2.22;1.08;;;;;;;;;;5114315;28;20024;-58
2023/11/21 07:55:24;;;;;;;1.75;1.25;;;;;;;;;;5114057;28;20387;-58
2023/11/21 07:57:50;;;;;;;2.10;1.00;;;;;;;;;;5115088;28;20106;-58
2023/11/21 08:00:17;;;;;;;1.90;1.10;;;;;;;;;;5114277;28;20062;-58
2023/11/21 08:02:45;;;;;;;2.42;1.08;;;;;;;;;;5113936;28;20028;-58
2023/11/21 08:05:12;;;;;;;2.33;1.40;;;;;;;;;;5114177;28;20028;-57
2023/11/21 08:07:38;;;;;;;3.08;1.30;;;;;;;;;;5114217;28;20098;-58
2023/11/21 08:10:05;;;;;;;2.42;1.20;;;;;;;;;;5114604;28;20023;-58
2023/11/21 08:12:31;;;;;;;2.38;1.33;;;;;;;;;;5113983;28;20059;-58
2023/11/21 08:14:57;;;;;;;1.92;1.00;;;;;;;;;;5114837;28;20015;-58
2023/11/21 08:17:23;;;;;;;1.95;1.25;;;;;;;;;;5114825;28;20163;-58
2023/11/21 08:19:51;;;;;;;3.15;1.48;;;;;;;;;;5114028;28;20110;-58
2023/11/21 08:22:17;;;;;;;2.83;0.90;;;;;;;;;;5113772;28;20028;-59
2023/11/21 08:24:44;;;;;;;2.25;1.55;;;;;;;;;;5114440;28;20030;-58
2023/11/21 08:27:10;;;;;;;2.80;1.38;;;;;;;;;;5114248;28;20035;-58
2023/11/21 08:29:36;;;;;;;2.22;1.15;;;;;;;;;;5114388;28;20028;-58
2023/11/21 08:32:02;;;;;;;5.50;1.40;;;;;;;;;;5113538;28;20020;-58
2023/11/21 08:34:28;;;;;;;2.58;1.20;;;;;;;;;;5114409;28;20023;-58
2023/11/21 08:36:57;;;;;;;2.65;1.10;;;;;;;;;;5114166;28;20027;-58
2023/11/21 08:39:24;;;;;;;1.85;1.00;;;;;;;;;;5113728;28;20030;-58
2023/11/21 08:41:50;;;;;;;2.95;1.92;;;;;;;;;;5113850;28;20123;-58
2023/11/21 08:44:17;;;;;;;2.28;1.23;;;;;;;;;;5113816;28;20084;-58
2023/11/21 08:46:44;;;;;;;5.30;1.23;;;;;;;;;;5114266;28;20039;-59
2023/11/21 08:49:11;;;;;;;2.85;1.20;;;;;;;;;;5114355;28;20039;-58
2023/11/21 08:51:37;;;;;;;6.75;1.63;;;;;;;;;;5114176;28;20032;-59
2023/11/21 08:54:06;;;;;;;2.40;1.38;;;;;;;;;;5113849;28;20085;-58
2023/11/21 08:56:32;;;;;;;2.70;1.60;;;;;;;;;;5114827;28;20076;-58
2023/11/21 08:59:00;;;;;;;2.05;1.33;;;;;;;;;;5114042;28;20112;-58
2023/11/21 09:01:26;;;;;;;1.83;1.27;;;;;;;;;;5113679;28;20377;-59
2023/11/21 09:03:52;;;;;;;3.08;1.20;;;;;;;;;;5114031;28;20019;-58
2023/11/21 09:06:18;;;;;;;2.50;1.08;;;;;;;;;;5116839;28;20023;-58
2023/11/21 09:08:44;;;;;;;2.28;1.48;;;;;;;;;;5117416;28;20031;-58
2023/11/21 09:11:11;;;;;;;2.08;1.42;;;;;;;;;;5117336;28;20020;-59
2023/11/21 09:13:37;;;;;;;2.22;1.60;;;;;;;;;;5117240;28;20031;-59
2023/11/21 09:16:03;;;;;;;3.00;1.35;;;;;;;;;;5117736;28;20027;-58
2023/11/21 09:18:29;;;;;;;2.47;1.00;;;;;;;;;;5117534;28;20065;-58
2023/11/21 09:20:56;;;;;;;4.32;1.63;;;;;;;;;;5117608;28;20463;-58
2023/11/21 09:23:22;;;;;;;2.40;1.05;;;;;;;;;;5117411;28;20103;-58
2023/11/21 09:25:49;;;;;;;2.20;1.27;;;;;;;;;;5116970;28;20034;-59
2023/11/21 09:28:17;;;;;;;1.77;1.05;;;;;;;;;;5117470;28;20028;-58
2023/11/21 09:30:43;;;;;;;3.28;1.80;;;;;;;;;;5116959;28;20019;-58
2023/11/21 09:33:10;;;;;;;2.05;1.13;;;;;;;;;;5116578;28;20457;-58
2023/11/21 09:35:38;;;;;;;1.92;1.15;;;;;;;;;;5116713;28;20024;-58
2023/11/21 09:38:10;;;;;;;1.60;1.00;;;;;;;;;;5117330;28;20020;-58
2023/11/21 09:40:37;;;;;;;2.63;1.27;;;;;;;;;;5116702;28;20541;-58
2023/11/21 09:43:07;;;;;;;2.63;1.17;;;;;;;;;;5117230;28;20073;-58
2023/11/21 09:45:35;;;;;;;1.55;0.65;;;;;;;;;;5117145;28;20038;-58
2023/11/21 09:48:02;;;;;;;1.35;0.80;;;;;;;;;;5116569;28;20122;-58
2023/11/21 09:50:28;;;;;;;1.45;0.80;;;;;;;;;;5116481;28;20024;-58
2023/11/21 09:53:00;;;;;;;1.33;0.70;;;;;;;;;;5116402;28;20020;-58
2023/11/21 09:55:29;;;;;;;3.13;0.82;;;;;;;;;;5116939;28;20412;-58
2023/11/21 09:57:56;;;;;;;1.17;0.50;;;;;;;;;;5116648;28;20051;-58
2023/11/21 10:00:27;;;;;;;1.20;0.60;;;;;;;;;;5116091;28;20065;-58
2023/11/21 10:02:53;;;;;;;1.63;1.02;;;;;;;;;;5116559;28;20035;-59
2023/11/21 10:05:21;;;;;;;2.58;0.88;;;;;;;;;;5116184;28;20023;-58
2023/11/21 10:07:48;;;;;;;1.40;0.90;;;;;;;;;;5116245;28;20465;-58
2023/11/21 10:10:18;;;;;;;1.73;0.88;;;;;;;;;;5116324;28;20160;-56
2023/11/21 10:12:45;;;;;;;2.22;0.63;;;;;;;;;;5116666;28;20020;-58
2023/11/21 10:15:12;;;;;;;0.85;0.57;;;;;;;;;;5116798;28;20077;-58
2023/11/21 10:17:43;;;;;;;0.82;0.40;;;;;;;;;;5116287;28;20437;-58
2023/11/21 10:20:11;;;;;;;1.30;0.70;;;;;;;;;;5116504;28;20031;-58
2023/11/21 10:22:38;;;;;;;1.02;0.40;;;;;;;;;;5116375;28;20028;-58
2023/11/21 10:25:07;;;;;;;1.65;0.40;;;;;;;;;;5115585;28;20028;-58
2023/11/21 10:27:33;;;;;;;0.73;0.35;;;;;;;;;;5116133;28;20028;-58
2023/11/21 10:30:01;;;;;;;0.90;0.40;;;;;;;;;;5116952;28;20039;-59
2023/11/21 10:32:32;;;;;;;0.63;0.30;;;;;;;;;;5116298;28;20023;-58
2023/11/21 10:35:06;;;;;;;0.80;0.40;;;;;;;;;;5115658;28;20051;-58
2023/11/21 10:37:32;;;;;;;0.80;0.40;;;;;;;;;;5116214;28;20121;-58
2023/11/21 10:39:59;;;;;;;1.35;0.55;;;;;;;;;;5116133;28;20019;-58
2023/11/21 10:42:25;;;;;;;1.02;0.52;;;;;;;;;;5115496;28;20033;-58
2023/11/21 10:44:52;;;;;;;1.38;0.82;;;;;;;;;;5115553;28;20062;-58
2023/11/21 10:47:19;;;;;;;4.22;1.02;;;;;;;;;;5116282;28;20118;-58
2023/11/21 10:49:47;;;;;;;2.08;0.60;;;;;;;;;;5115624;28;20065;-58
2023/11/21 10:52:17;;;;;;;1.02;0.50;;;;;;;;;;5115236;28;20034;-58
2023/11/21 10:54:43;;;;;;;1.27;0.60;;;;;;;;;;5115593;28;20054;-58
2023/11/21 10:57:10;;;;;;;1.02;0.45;;;;;;;;;;5115185;28;20031;-58
2023/11/21 10:59:36;;;;;;;0.82;0.45;;;;;;;;;;5115596;28;20452;-58
2023/11/21 11:02:09;;;;;;;0.22;0.10;;;;;;;;;;5115586;28;20030;-58
2023/11/21 11:04:37;;;;;;;0.38;0.20;;;;;;;;;;5115380;28;20141;-58
2023/11/21 11:07:04;;;;;;;1.30;0.40;;;;;;;;;;5115459;28;20028;-59
2023/11/21 11:09:33;;;;;;;1.10;0.30;;;;;;;;;;5114997;28;20055;-58
2023/11/21 11:11:59;;;;;;;0.73;0.30;;;;;;;;;;5114808;28;20026;-58
2023/11/21 11:14:26;;;;;;;0.75;0.32;;;;;;;;;;5115519;28;20023;-58
2023/11/21 11:16:57;;;;;;;1.73;0.85;;;;;;;;;;5115203;28;20377;-58
2023/11/21 11:19:23;;;;;;;0.50;0.22;;;;;;;;;;5114947;28;20365;-58
2023/11/21 11:22:00;;;;;;;1.13;0.60;;;;;;;;;;5115344;28;20024;-59
2023/11/21 11:24:36;;;;;;;1.52;0.65;;;;;;;;;;5114559;28;20055;-58
2023/11/21 11:27:09;;;;;;;0.98;0.57;;;;;;;;;;5114814;28;20024;-59
2023/11/21 11:29:46;;;;;;;0.77;0.43;;;;;;;;;;5114602;28;20055;-58
2023/11/21 11:32:21;;;;;;;0.93;0.55;;;;;;;;;;5115473;28;20031;-59
2023/11/21 11:34:56;;;;;;;0.93;0.60;;;;;;;;;;5114658;28;20484;-59
2023/11/21 11:37:23;;;;;;;1.08;0.50;;;;;;;;;;5114895;28;20034;-58
2023/11/21 11:39:49;;;;;;;1.42;0.68;;;;;;;;;;5114327;28;20032;-58
2023/11/21 11:42:19;;;;;;;1.83;1.00;;;;;;;;;;5114478;28;20028;-58
2023/11/21 11:44:46;;;;;;;1.52;0.70;;;;;;;;;;5114466;28;20027;-59
2023/11/21 11:47:15;;;;;;;1.23;0.52;;;;;;;;;;5114324;28;20366;-59
2023/11/21 11:50:10;;;;;;;1.20;0.50;;;;;;;;;;5114402;28;20063;-59
2023/11/21 11:52:39;;;;;;;0.43;0.30;;;;;;;;;;5114836;28;20330;-59
2023/11/21 11:55:06;;;;;;;1.25;0.70;;;;;;;;;;5114708;28;20051;-59
2023/11/21 11:57:35;;;;;;;1.17;0.60;;;;;;;;;;5114518;28;20130;-59
2023/11/21 12:00:10;;;;;;;1.98;0.60;;;;;;;;;;5113638;28;20077;-59
2023/11/21 12:02:37;;;;;;;1.35;0.65;;;;;;;;;;5114158;28;20027;-58
2023/11/21 12:05:14;;;;;;;0.82;0.40;;;;;;;;;;5114246;28;20030;-58
2023/11/21 12:07:53;;;;;;;1.42;0.82;;;;;;;;;;5114854;28;20331;-58
2023/11/21 12:10:20;;;;;;;1.60;0.82;;;;;;;;;;5114198;28;20120;-59
2023/11/21 12:12:47;;;;;;;1.70;0.82;;;;;;;;;;5114366;28;20034;-59
2023/11/21 12:15:14;;;;;;;1.20;0.65;;;;;;;;;;5114129;28;20452;-58
2023/11/21 12:17:40;;;;;;;1.55;0.77;;;;;;;;;;5114244;28;20028;-58
2023/11/21 12:20:14;;;;;;;1.70;1.08;;;;;;;;;;5114654;28;20020;-58
2023/11/21 12:22:41;;;;;;;1.92;1.08;;;;;;;;;;5114107;28;20027;-59
2023/11/21 12:25:07;;;;;;;1.75;1.00;;;;;;;;;;5114008;28;20073;-59
2023/11/21 12:27:33;;;;;;;2.00;0.90;;;;;;;;;;5113991;28;20027;-59
2023/11/21 12:29:59;;;;;;;2.72;1.15;;;;;;;;;;5113813;28;20081;-59
2023/11/21 12:32:25;;;;;;;2.35;1.50;;;;;;;;;;5114006;28;20059;-58
2023/11/21 12:34:51;;;;;;;2.30;1.38;;;;;;;;;;5114452;28;20107;-59
2023/11/21 12:37:17;;;;;;;2.40;1.35;;;;;;;;;;5114211;28;20028;-59
2023/11/21 12:39:43;;;;;;;2.45;1.30;;;;;;;;;;5115749;28;20114;-59
2023/11/21 12:42:10;;;;;;;2.40;1.10;;;;;;;;;;5118440;28;20110;-59
2023/11/21 12:44:40;;;;;;;2.28;1.50;;;;;;;;;;5118247;28;20112;-59
2023/11/21 12:47:07;;;;;;;2.30;1.33;;;;;;;;;;5117630;28;20030;-58
2023/11/21 12:49:33;;;;;;;2.42;1.63;;;;;;;;;;5118510;28;20028;-58
2023/11/21 12:51:59;;;;;;;4.35;2.40;;;;;;;;;;5117501;28;20129;-59
2023/11/21 12:54:25;;;;;;;2.50;1.60;;;;;;;;;;5117353;28;20477;-59
2023/11/21 12:56:51;;;;;;;4.75;2.25;;;;;;;;;;5118138;28;20118;-59
2023/11/21 12:59:18;;;;;;;3.25;2.20;;;;;;;;;;5117382;28;20027;-58
2023/11/21 13:01:46;;;;;;;3.67;2.80;;;;;;;;;;5117481;28;20034;-58
2023/11/21 13:04:12;;;;;;;4.95;2.22;;;;;;;;;;5117436;28;20023;-58
2023/11/21 13:06:40;;;;;;;3.45;1.83;;;;;;;;;;5117894;28;20024;-58
2023/11/21 13:09:10;;;;;;;3.45;1.52;;;;;;;;;;5117911;28;20080;-58
2023/11/21 13:11:36;;;;;;;1.98;1.25;;;;;;;;;;5117268;28;20036;-58
2023/11/21 13:14:05;;;;;;;2.58;1.23;;;;;;;;;;5117272;28;20114;-58
2023/11/21 13:16:31;;;;;;;1.55;1.00;;;;;;;;;;5117731;28;20423;-58
2023/11/21 13:18:57;;;;;;;2.63;1.70;;;;;;;;;;5118033;28;20058;-58
2023/11/21 13:21:24;;;;;;;3.38;1.83;;;;;;;;;;5117125;28;20102;-58
2023/11/21 13:23:52;;;;;;;3.55;2.20;;;;;;;;;;5117121;28;20087;-58
2023/11/21 13:26:20;;;;;;;3.15;1.65;;;;;;;;;;5116682;28;20496;-59
2023/11/21 13:28:47;;;;;;;2.70;1.85;;;;;;;;;;5118179;28;20038;-59
2023/11/21 13:31:32;;;;;;;2.63;1.58;;;;;;;;;;5117532;28;20036;-58
2023/11/21 13:34:04;;;;;;;2.97;1.77;;;;;;;;;;5117204;28;20020;-58
2023/11/21 13:36:33;;;;;;;2.03;1.27;;;;;;;;;;5117590;28;20039;-57
2023/11/21 13:39:04;;;;;;;2.38;1.55;;;;;;;;;;5117191;28;20032;-57
2023/11/21 13:41:30;;;;;;;1.90;1.20;;;;;;;;;;5116771;28;20465;-58
2023/11/21 13:44:14;;;;;;;2.15;1.25;;;;;;;;;;5116600;28;20027;-58
2023/11/21 13:46:40;;;;;;;1.42;0.80;;;;;;;;;;5116688;28;20128;-58
2023/11/21 13:49:09;;;;;;;1.52;0.90;;;;;;;;;;5116587;28;20031;-58
2023/11/21 13:51:44;;;;;;;1.73;0.90;;;;;;;;;;5116614;28;20024;-58
2023/11/21 13:54:13;;;;;;;0.73;0.32;;;;;;;;;;5116637;28;20476;-58
2023/11/21 13:56:41;;;;;;;1.00;0.40;;;;;;;;;;5117159;28;20060;-57
2023/11/21 13:59:16;;;;;;;1.67;0.50;;;;;;;;;;5116418;28;20023;-58
2023/11/21 14:01:54;;;;;;;0.93;0.38;;;;;;;;;;5116946;28;20376;-57
2023/11/21 14:04:34;;;;;;;1.13;0.57;;;;;;;;;;5117437;28;20027;-57
2023/11/21 14:07:10;;;;;;;1.85;0.82;;;;;;;;;;5116839;28;20039;-57
2023/11/21 14:09:43;;;;;;;1.98;0.65;;;;;;;;;;5116825;28;20358;-57
2023/11/21 14:12:12;;;;;;;1.08;0.65;;;;;;;;;;5116792;28;20028;-58
2023/11/21 14:14:41;;;;;;;1.92;1.40;;;;;;;;;;5116152;28;20062;-58
2023/11/21 14:17:08;;;;;;;1.90;1.52;;;;;;;;;;5116468;28;20020;-57
2023/11/21 14:19:38;;;;;;;2.85;1.80;;;;;;;;;;5115930;28;20392;-57
2023/11/21 14:22:04;;;;;;;3.00;2.42;;;;;;;;;;5115956;28;20023;-57
2023/11/21 14:24:32;;;;;;;2.95;2.13;;;;;;;;;;5116161;28;20023;-58
2023/11/21 14:26:58;;;;;;;4.20;2.38;;;;;;;;;;5116092;28;20039;-57
2023/11/21 14:29:24;;;;;;;3.42;2.60;;;;;;;;;;5116224;28;20019;-58
2023/11/21 14:31:51;;;;;;;2.80;2.25;;;;;;;;;;5097569;28;20034;-58
2023/11/21 14:34:18;;;;;;;3.88;2.88;;;;;;;;;;5115920;28;20452;-58
2023/11/21 14:36:45;;;;;;;6.72;2.63;;;;;;;;;;5115323;28;20028;-58
2023/11/21 14:39:23;;;;;;;3.80;2.88;;;;;;;;;;5115543;28;20020;-58
2023/11/21 14:41:53;;;;;;;4.25;2.53;;;;;;;;;;5116002;28;20026;-56
2023/11/21 14:44:19;;;;;;;6.43;3.42;;;;;;;;;;5115469;28;20023;-57